Time;durP1;ratioP1;P1;durP2;ratioP2;P2;SDS_P1;SDS_P2;PMS_P1;PMS_P2;Temp;Humidity;BMP_temperature;BMP_pressure;BME280_temperature;BME280_humidity;BME280_pressure;Samples;Min_cycle;Max_cycle;Signal;HPM_P1;HPM_P2
2022/12/06 00:00:46;;;;;;;9.97;7.70;;;;;;;1.71;100.00;101071.63;5089867;28;20211;-81
2022/12/06 00:03:12;;;;;;;13.20;8.23;;;;;;;1.71;100.00;101074.25;5095024;28;20573;-82
2022/12/06 00:05:40;;;;;;;10.63;8.37;;;;;;;1.71;100.00;101076.00;5094478;28;20758;-82
2022/12/06 00:08:07;;;;;;;13.53;9.63;;;;;;;1.69;100.00;101076.03;5095094;28;20246;-82
2022/12/06 00:10:34;;;;;;;11.33;8.87;;;;;;;1.69;100.00;101072.56;5094538;28;20205;-82
2022/12/06 00:13:01;;;;;;;11.57;8.07;;;;;;;1.69;100.00;101073.41;5094724;28;20254;-82
2022/12/06 00:15:28;;;;;;;11.33;8.73;;;;;;;1.68;100.00;101076.06;5094884;28;20241;-82
2022/12/06 00:17:54;;;;;;;13.43;9.53;;;;;;;1.68;100.00;101070.81;5094691;28;20204;-82
2022/12/06 00:20:21;;;;;;;11.23;8.70;;;;;;;1.66;100.00;101073.47;5095685;28;20604;-81
2022/12/06 00:22:48;;;;;;;13.93;9.67;;;;;;;1.66;100.00;101068.22;5094715;28;20208;-82
2022/12/06 00:25:15;;;;;;;12.93;9.67;;;;;;;1.67;100.00;101066.47;5094113;28;20232;-82
2022/12/06 00:27:41;;;;;;;13.07;9.43;;;;;;;1.66;100.00;101065.59;5095420;28;20204;-81
2022/12/06 00:30:09;;;;;;;14.60;9.90;;;;;;;1.66;100.00;101062.97;5095254;28;20208;-81
2022/12/06 00:32:35;;;;;;;13.23;8.87;;;;;;;1.67;100.00;101058.59;5095176;28;20216;-82
2022/12/06 00:35:02;;;;;;;12.93;9.07;;;;;;;1.66;100.00;101055.09;5095685;28;20200;-81
2022/12/06 00:37:28;;;;;;;13.43;9.20;;;;;;;1.65;100.00;101052.50;5095221;28;20224;-81
2022/12/06 00:39:56;;;;;;;12.13;9.37;;;;;;;1.64;100.00;101053.41;5095194;28;20208;-82
2022/12/06 00:42:23;;;;;;;12.27;9.57;;;;;;;1.62;100.00;101050.78;5087078;28;20208;-82
2022/12/06 00:44:49;;;;;;;11.93;9.40;;;;;;;1.63;100.00;101051.66;5085546;28;20216;-82
2022/12/06 00:47:15;;;;;;;12.27;9.07;;;;;;;1.63;100.00;101056.91;5094169;28;20310;-82
2022/12/06 00:49:42;;;;;;;10.53;8.00;;;;;;;1.62;100.00;101052.56;5094873;28;20212;-81
2022/12/06 00:52:08;;;;;;;10.70;8.30;;;;;;;1.63;100.00;101051.66;5094477;28;20196;-82
2022/12/06 00:54:35;;;;;;;11.33;8.17;;;;;;;1.64;100.00;101053.41;5093923;28;20215;-82
2022/12/06 00:57:03;;;;;;;11.37;8.50;;;;;;;1.62;100.00;101048.16;5094668;28;20228;-82
2022/12/06 00:59:29;;;;;;;11.83;9.00;;;;;;;1.63;100.00;101054.28;5094360;28;20204;-81
2022/12/06 01:01:56;;;;;;;11.63;8.80;;;;;;;1.62;100.00;101045.53;5086218;28;20212;-81
2022/12/06 01:04:22;;;;;;;11.70;8.87;;;;;;;1.61;100.00;101050.84;5094673;28;20713;-81
2022/12/06 01:06:49;;;;;;;10.70;7.93;;;;;;;1.61;100.00;101042.97;5094328;28;20832;-82
2022/12/06 01:09:15;;;;;;;10.40;8.23;;;;;;;1.60;100.00;101049.13;5094899;28;20607;-81
2022/12/06 01:11:42;;;;;;;12.17;9.43;;;;;;;1.59;100.00;101055.28;5095286;28;20208;-82
2022/12/06 01:14:09;;;;;;;10.93;8.20;;;;;;;1.58;100.00;101054.41;5095035;28;20201;-81
2022/12/06 01:16:36;;;;;;;10.83;8.03;;;;;;;1.59;100.00;101055.28;5094854;28;20578;-81
2022/12/06 01:19:05;;;;;;;10.97;8.80;;;;;;;1.58;100.00;101050.91;5093974;28;20611;-81
2022/12/06 01:21:31;;;;;;;11.33;8.80;;;;;;;1.58;100.00;101050.91;5093675;28;20216;-81
2022/12/06 01:23:58;;;;;;;11.77;8.97;;;;;;;1.59;100.00;101060.53;5093867;28;20224;-81
2022/12/06 01:26:27;;;;;;;10.37;8.00;;;;;;;1.59;100.00;101055.28;5090929;28;20228;-82
2022/12/06 01:28:53;;;;;;;11.27;8.53;;;;;;;1.58;100.00;101053.53;5092052;28;20215;-81
2022/12/06 01:31:21;;;;;;;10.93;8.23;;;;;;;1.58;100.00;101053.53;5078484;28;20231;-82
2022/12/06 01:33:48;;;;;;;12.73;9.33;;;;;;;1.59;100.00;101050.88;5092255;28;20514;-82
2022/12/06 01:36:18;;;;;;;10.27;8.03;;;;;;;1.59;100.00;101050.03;5093461;28;20239;-82
2022/12/06 01:38:48;;;;;;;11.20;8.77;;;;;;;1.59;100.00;101047.41;5091968;28;20583;-82
2022/12/06 01:41:15;;;;;;;10.80;8.77;;;;;;;1.59;100.00;101037.75;5079597;28;20231;-82
2022/12/06 01:43:44;;;;;;;11.90;8.47;;;;;;;1.60;100.00;101051.75;5073688;28;20200;-81
2022/12/06 01:46:25;;;;;;;11.53;8.57;;;;;;;1.60;100.00;101036.88;5088280;28;20228;-83
2022/12/06 01:48:55;;;;;;;11.90;8.13;;;;;;;1.60;100.00;101041.25;5094308;28;20216;-82
2022/12/06 01:51:22;;;;;;;11.93;8.60;;;;;;;1.60;100.00;101031.63;5094446;28;20203;-82
2022/12/06 01:53:53;;;;;;;10.20;8.93;;;;;;;1.60;100.00;101030.75;5094437;28;20200;-81
2022/12/06 01:56:20;;;;;;;10.77;8.30;;;;;;;1.62;100.00;101034.19;5093949;28;20228;-82
2022/12/06 01:58:50;;;;;;;10.13;7.63;;;;;;;1.61;100.00;101027.22;5094434;28;20193;-82
2022/12/06 02:01:17;;;;;;;12.03;8.50;;;;;;;1.62;100.00;101031.56;5094337;28;20185;-82
2022/12/06 02:03:47;;;;;;;11.20;8.77;;;;;;;1.61;100.00;101024.59;5093705;28;20216;-82
2022/12/06 02:06:14;;;;;;;13.27;8.80;;;;;;;1.61;100.00;101020.19;5093482;28;20220;-81
2022/12/06 02:08:41;;;;;;;10.90;9.00;;;;;;;1.62;100.00;101026.31;5093805;28;20689;-83
2022/12/06 02:11:08;;;;;;;11.77;8.40;;;;;;;1.61;100.00;101019.34;5092927;28;20212;-81
2022/12/06 02:13:36;;;;;;;10.97;8.30;;;;;;;1.60;100.00;101021.13;5092953;28;20826;-81
2022/12/06 02:16:15;;;;;;;12.10;8.50;;;;;;;1.61;100.00;101014.09;5093216;28;20232;-82
2022/12/06 02:18:49;;;;;;;11.10;8.10;;;;;;;1.61;100.00;101008.84;5093453;28;20188;-82
2022/12/06 02:21:25;;;;;;;10.60;8.47;;;;;;;1.62;100.00;101007.94;5093562;28;20198;-81
2022/12/06 02:24:20;;;;;;;12.10;9.00;;;;;;;1.61;100.00;101006.22;5093133;28;20567;-82
2022/12/06 02:26:49;;;;;;;11.13;8.60;;;;;;;1.62;100.00;101007.94;5076845;28;20710;-82
2022/12/06 02:29:50;;;;;;;12.57;9.13;;;;;;;1.62;100.00;101008.78;5092877;28;20606;-82
2022/12/06 02:32:25;;;;;;;11.07;8.67;;;;;;;1.64;100.00;101006.13;5093494;28;20195;-83
2022/12/06 02:34:57;;;;;;;12.73;9.40;;;;;;;1.62;100.00;101000.91;5092475;28;20192;-82
2022/12/06 02:37:29;;;;;;;12.47;9.10;;;;;;;1.62;100.00;101008.78;5092582;28;20192;-83
2022/12/06 02:40:01;;;;;;;11.57;8.90;;;;;;;1.60;100.00;101001.88;5092681;28;20188;-82
2022/12/06 02:42:32;;;;;;;11.03;8.63;;;;;;;1.60;100.00;100999.25;5091750;28;20196;-81
2022/12/06 02:45:02;;;;;;;11.00;8.10;;;;;;;1.59;100.00;101005.38;5091965;28;20215;-82
2022/12/06 02:47:35;;;;;;;13.00;9.43;;;;;;;1.58;100.00;101003.66;5091858;28;20193;-82
2022/12/06 02:50:05;;;;;;;10.60;8.47;;;;;;;1.58;100.00;100996.66;5092204;28;20196;-82
2022/12/06 02:52:31;;;;;;;11.60;8.53;;;;;;;1.58;100.00;100995.78;5092447;28;20568;-82
2022/12/06 02:55:00;;;;;;;11.60;9.07;;;;;;;1.58;100.00;100995.78;5091421;28;20223;-81
2022/12/06 02:57:40;;;;;;;11.23;8.57;;;;;;;1.59;100.00;100998.38;5091888;28;20233;-82
2022/12/06 03:00:28;;;;;;;10.77;8.57;;;;;;;1.58;100.00;100999.28;5092456;28;20208;-83
2022/12/06 03:03:04;;;;;;;11.17;7.87;;;;;;;1.60;100.00;100999.25;5091946;28;20192;-83
2022/12/06 03:05:39;;;;;;;13.27;8.57;;;;;;;1.59;100.00;101005.38;5091574;28;20236;-82
2022/12/06 03:08:17;;;;;;;9.70;8.10;;;;;;;1.59;100.00;101001.00;5071847;28;20643;-83
2022/12/06 03:10:51;;;;;;;9.90;8.13;;;;;;;1.59;100.00;101000.16;5081094;28;20207;-83
2022/12/06 03:13:25;;;;;;;10.33;8.30;;;;;;;1.59;100.00;101003.63;5091480;28;20188;-83
2022/12/06 03:15:59;;;;;;;11.43;8.23;;;;;;;1.57;100.00;100994.91;5081804;28;20713;-84
2022/12/06 03:18:32;;;;;;;12.10;8.80;;;;;;;1.58;100.00;101001.91;5091850;28;20192;-82
2022/12/06 03:21:04;;;;;;;10.73;7.93;;;;;;;1.58;100.00;100995.78;5091648;28;20219;-82
2022/12/06 03:23:36;;;;;;;9.90;7.57;;;;;;;1.58;100.00;100990.53;5087378;28;20192;-81
2022/12/06 03:26:06;;;;;;;11.53;8.90;;;;;;;1.58;100.00;100987.91;5094729;28;20228;-83
2022/12/06 03:28:35;;;;;;;11.87;7.97;;;;;;;1.58;100.00;100990.53;5096029;28;20204;-81
2022/12/06 03:31:05;;;;;;;11.20;8.83;;;;;;;1.57;100.00;100983.56;5096312;28;20231;-82
2022/12/06 03:33:36;;;;;;;10.97;8.97;;;;;;;1.56;100.00;100982.69;5092516;28;20207;-81
2022/12/06 03:36:03;;;;;;;9.93;8.43;;;;;;;1.55;100.00;100980.97;5096037;28;20259;-83
2022/12/06 03:38:35;;;;;;;12.20;8.73;;;;;;;1.56;100.00;100984.44;5095809;28;20219;-83
2022/12/06 03:41:07;;;;;;;10.53;8.47;;;;;;;1.55;100.00;100983.59;5095369;28;20567;-81
2022/12/06 03:43:34;;;;;;;10.90;7.87;;;;;;;1.54;100.00;100989.72;5095382;28;20795;-81
2022/12/06 03:46:04;;;;;;;9.87;8.03;;;;;;;1.54;100.00;100991.50;5094802;28;20219;-82
2022/12/06 03:48:35;;;;;;;10.30;8.53;;;;;;;1.53;100.00;100988.00;5096022;28;20192;-81
2022/12/06 03:51:05;;;;;;;10.43;8.13;;;;;;;1.54;100.00;100994.13;5095911;28;20211;-81
2022/12/06 03:53:32;;;;;;;12.30;8.10;;;;;;;1.54;100.00;100978.38;5096054;28;20208;-84
2022/12/06 03:55:59;;;;;;;10.33;7.53;;;;;;;1.53;100.00;100984.50;5095633;28;20235;-84
2022/12/06 03:58:25;;;;;;;9.80;7.27;;;;;;;1.50;100.00;100979.31;5111870;28;20195;-81
2022/12/06 04:00:52;;;;;;;11.07;7.57;;;;;;;1.49;100.00;100981.06;5098784;28;20651;-81
2022/12/06 04:03:19;;;;;;;10.17;7.70;;;;;;;1.46;100.00;100980.28;5095297;28;20576;-80
2022/12/06 04:05:46;;;;;;;9.20;7.60;;;;;;;1.45;100.00;100981.16;5095145;28;20224;-81
2022/12/06 04:08:13;;;;;;;10.57;7.87;;;;;;;1.44;100.00;100975.06;5095082;28;20208;-81
2022/12/06 04:10:39;;;;;;;11.47;7.43;;;;;;;1.43;100.00;100972.50;5095639;28;20231;-81
2022/12/06 04:13:06;;;;;;;8.30;7.43;;;;;;;1.42;100.00;100968.13;5095168;28;20262;-80
2022/12/06 04:15:34;;;;;;;7.97;7.00;;;;;;;1.42;100.00;100970.75;5095044;28;20216;-81
2022/12/06 04:18:09;;;;;;;10.03;7.70;;;;;;;1.41;100.00;100967.28;5095339;28;20712;-81
2022/12/06 04:23:26;;;;;;;7.63;6.33;;;;;;;1.40;100.00;100965.53;5089401;28;20281;-81
2022/12/06 04:25:53;;;;;;;9.43;6.70;;;;;;;1.39;100.00;100964.69;5094202;28;20235;-81
2022/12/06 04:39:17;;;;;;;7.27;6.27;;;;;;;1.35;100.00;100951.63;5090677;28;20254;-81
2022/12/06 04:44:28;;;;;;;8.77;6.57;;;;;;;1.35;100.00;100952.50;5089594;28;20199;-83
2022/12/06 04:46:54;;;;;;;9.20;6.63;;;;;;;1.35;100.00;100946.41;5094276;28;20228;-83
2022/12/06 04:49:20;;;;;;;7.97;6.00;;;;;;;1.34;100.00;100945.53;5094369;28;20218;-83
2022/12/06 04:51:47;;;;;;;7.57;5.87;;;;;;;1.33;100.00;100943.78;5085104;28;20200;-82
2022/12/06 04:54:13;;;;;;;8.07;6.07;;;;;;;1.33;100.00;100949.03;5091996;28;20208;-82
2022/12/06 04:56:41;;;;;;;9.10;6.60;;;;;;;1.33;100.00;100943.78;5094553;28;20220;-82
2022/12/06 04:59:08;;;;;;;7.53;6.50;;;;;;;1.32;100.00;100942.06;5094953;28;20219;-80
2022/12/06 05:01:34;;;;;;;7.20;5.73;;;;;;;1.32;100.00;100942.06;5094883;28;20609;-81
2022/12/06 05:04:00;;;;;;;7.27;5.93;;;;;;;1.32;100.00;100942.06;5094619;28;20200;-80
2022/12/06 05:06:27;;;;;;;8.97;6.50;;;;;;;1.31;100.00;100935.09;5094409;28;20228;-80
2022/12/06 05:08:53;;;;;;;8.53;6.40;;;;;;;1.31;100.00;100934.22;5094709;28;20677;-80
2022/12/06 05:11:20;;;;;;;6.90;5.67;;;;;;;1.32;100.00;100931.56;5094361;28;20197;-81
2022/12/06 05:13:48;;;;;;;6.60;5.90;;;;;;;1.31;100.00;100931.59;5094273;28;20208;-82
2022/12/06 05:16:14;;;;;;;7.40;6.57;;;;;;;1.30;100.00;100933.34;5084571;28;20216;-81
2022/12/06 05:18:41;;;;;;;6.20;5.10;;;;;;;1.31;100.00;100942.09;5079144;28;20207;-81
2022/12/06 05:21:10;;;;;;;7.10;5.50;;;;;;;1.30;100.00;100938.59;5083179;28;20207;-81
2022/12/06 05:23:37;;;;;;;6.80;5.13;;;;;;;1.31;100.00;100939.47;5081778;28;20196;-80
2022/12/06 05:26:05;;;;;;;6.27;5.27;;;;;;;1.33;100.00;100937.69;5090335;28;20224;-82
2022/12/06 05:28:33;;;;;;;7.03;5.00;;;;;;;1.33;100.00;100940.31;5082453;28;20196;-82
2022/12/06 05:31:00;;;;;;;7.17;5.97;;;;;;;1.34;100.00;100942.03;5087036;28;20200;-80
2022/12/06 05:33:27;;;;;;;6.57;5.10;;;;;;;1.33;100.00;100937.69;5089638;28;20200;-81
2022/12/06 05:35:54;;;;;;;7.40;5.43;;;;;;;1.33;100.00;100937.69;5083165;28;20232;-81
2022/12/06 05:38:21;;;;;;;6.83;5.30;;;;;;;1.34;100.00;100937.66;5088938;28;20200;-80
2022/12/06 05:40:48;;;;;;;7.07;5.50;;;;;;;1.35;100.00;100935.91;5090452;28;20196;-81
2022/12/06 05:43:15;;;;;;;6.00;5.00;;;;;;;1.34;100.00;100934.16;5079406;28;20209;-80
2022/12/06 05:45:43;;;;;;;5.80;5.10;;;;;;;1.33;100.00;100928.06;5083995;28;20231;-80
2022/12/06 05:48:11;;;;;;;6.03;5.33;;;;;;;1.32;100.00;100928.09;5085285;28;20200;-80
2022/12/06 05:50:37;;;;;;;5.83;4.97;;;;;;;1.33;100.00;100928.06;5082927;28;20205;-80
2022/12/06 05:53:04;;;;;;;6.77;5.27;;;;;;;1.34;100.00;100928.91;5085151;28;20211;-80
2022/12/06 05:55:30;;;;;;;6.27;5.47;;;;;;;1.36;100.00;100937.63;5081067;28;20228;-79
2022/12/06 05:57:57;;;;;;;6.40;5.20;;;;;;;1.35;100.00;100921.00;5091279;28;20212;-80
2022/12/06 06:00:33;;;;;;;6.47;5.30;;;;;;;1.36;100.00;100925.38;5090515;28;20662;-80
2022/12/06 06:03:00;;;;;;;5.30;4.73;;;;;;;1.35;100.00;100915.75;5084480;28;20207;-81
2022/12/06 06:05:28;;;;;;;7.23;5.90;;;;;;;1.36;100.00;100917.50;5078553;28;20224;-80
2022/12/06 06:07:55;;;;;;;5.83;5.17;;;;;;;1.34;100.00;100916.66;5079964;28;20208;-81
2022/12/06 06:10:22;;;;;;;5.37;4.83;;;;;;;1.36;100.00;100916.63;5085331;28;20207;-78
2022/12/06 06:12:49;;;;;;;8.37;5.57;;;;;;;1.35;100.00;100926.25;5077045;28;20208;-80
2022/12/06 06:15:16;;;;;;;7.17;5.03;;;;;;;1.35;100.00;100925.41;5082755;28;20670;-80
2022/12/06 06:17:43;;;;;;;5.33;4.83;;;;;;;1.35;100.00;100914.91;5079839;28;20229;-78
2022/12/06 06:20:12;;;;;;;9.53;5.73;;;;;;;1.34;100.00;100914.03;5086988;28;20562;-80
2022/12/06 06:22:44;;;;;;;8.30;5.20;;;;;;;1.36;100.00;100914.00;5079203;28;20216;-79
2022/12/06 06:25:10;;;;;;;5.77;4.83;;;;;;;1.36;100.00;100909.63;5084598;28;20729;-79
2022/12/06 06:27:37;;;;;;;6.77;5.53;;;;;;;1.35;100.00;100915.75;5085197;28;20669;-79
2022/12/06 06:30:05;;;;;;;5.57;4.63;;;;;;;1.37;100.00;100918.38;5087564;28;20196;-79
2022/12/06 06:32:32;;;;;;;5.20;4.60;;;;;;;1.38;100.00;100914.84;5088551;28;20231;-80
2022/12/06 06:34:58;;;;;;;5.00;4.50;;;;;;;1.39;100.00;100911.31;5089478;28;20203;-80
2022/12/06 06:37:24;;;;;;;5.20;4.40;;;;;;;1.41;100.00;100908.66;5087743;28;20197;-79
2022/12/06 06:39:52;;;;;;;6.83;4.97;;;;;;;1.43;100.00;100906.88;5090691;28;20208;-79
2022/12/06 06:42:19;;;;;;;5.63;4.60;;;;;;;1.44;100.00;100908.56;5087264;28;20196;-79
2022/12/06 06:44:45;;;;;;;6.30;4.67;;;;;;;1.45;100.00;100905.91;5086505;28;20211;-79
2022/12/06 06:47:12;;;;;;;6.23;5.23;;;;;;;1.44;100.00;100912.06;5085656;28;20228;-78
2022/12/06 06:49:39;;;;;;;5.70;4.43;;;;;;;1.47;100.00;100914.63;5087191;28;20223;-78
2022/12/06 06:52:06;;;;;;;5.80;4.93;;;;;;;1.50;100.00;100921.56;5085532;28;20200;-79
2022/12/06 06:54:32;;;;;;;5.40;4.83;;;;;;;1.55;100.00;100924.97;5087820;28;20681;-79
2022/12/06 06:57:01;;;;;;;5.43;4.83;;;;;;;1.57;100.00;100915.31;5079248;28;20232;-81
2022/12/06 06:59:28;;;;;;;5.20;4.53;;;;;;;1.57;100.00;100921.41;5080347;28;20220;-79
2022/12/06 07:01:54;;;;;;;6.30;4.60;;;;;;;1.59;100.00;100924.00;5088357;28;20572;-79
2022/12/06 07:04:21;;;;;;;5.23;4.73;;;;;;;1.61;100.00;100928.31;5084946;28;20639;-80
2022/12/06 07:06:47;;;;;;;5.77;4.50;;;;;;;1.64;100.00;100935.25;5086898;28;20230;-79
2022/12/06 07:09:14;;;;;;;5.20;4.70;;;;;;;1.64;100.00;100941.38;5082653;28;20682;-79
2022/12/06 07:11:40;;;;;;;5.07;4.33;;;;;;;1.67;100.00;100935.19;5087400;28;20553;-80
2022/12/06 07:14:08;;;;;;;5.37;4.87;;;;;;;1.69;100.00;100942.13;5084079;28;20209;-79
2022/12/06 07:16:35;;;;;;;5.57;4.77;;;;;;;1.70;100.00;100943.00;5084155;28;20583;-79
2022/12/06 07:19:01;;;;;;;5.00;4.50;;;;;;;1.72;100.00;100936.81;5085792;28;20208;-80
2022/12/06 07:21:28;;;;;;;6.03;4.63;;;;;;;1.75;100.00;100946.41;5084881;28;20208;-79
2022/12/06 07:23:54;;;;;;;5.73;4.67;;;;;;;1.77;100.00;100944.59;5086908;28;20237;-79
2022/12/06 07:26:23;;;;;;;5.03;4.47;;;;;;;1.78;100.00;100946.34;5089019;28;20227;-80
2022/12/06 07:28:51;;;;;;;6.03;3.93;;;;;;;1.79;100.00;100944.56;5081744;28;20196;-80
2022/12/06 07:31:21;;;;;;;7.80;4.60;;;;;;;1.80;100.00;100949.75;5085999;28;20210;-79
2022/12/06 07:33:48;;;;;;;6.47;4.57;;;;;;;1.80;100.00;100949.75;5088764;28;20542;-79
2022/12/06 07:36:15;;;;;;;5.13;4.23;;;;;;;1.81;100.00;100942.75;5090275;28;20223;-80
2022/12/06 07:38:42;;;;;;;6.90;4.80;;;;;;;1.82;100.00;100947.09;5085848;28;20200;-80
2022/12/06 07:46:42;;;;;;;6.20;4.60;;;;;;;1.83;100.00;100943.59;5091344;28;20234;-79
2022/12/06 07:49:10;;;;;;;6.67;4.67;;;;;;;1.85;100.00;100953.16;5092011;28;20204;-80
2022/12/06 07:51:36;;;;;;;5.83;4.27;;;;;;;1.86;100.00;100946.16;5092136;28;20206;-81
2022/12/06 07:54:03;;;;;;;8.47;4.73;;;;;;;1.89;100.00;100948.69;5091740;28;20679;-80
2022/12/06 07:56:30;;;;;;;6.27;5.10;;;;;;;1.88;100.00;100939.97;5091429;28;20302;-80
2022/12/06 07:58:56;;;;;;;6.07;5.07;;;;;;;1.90;100.00;100942.56;5091441;28;20215;-79
2022/12/06 08:01:23;;;;;;;7.83;5.20;;;;;;;1.91;100.00;100947.78;5088883;28;20200;-79
2022/12/06 08:03:51;;;;;;;6.00;4.77;;;;;;;1.93;100.00;100951.22;5091427;28;20196;-80
2022/12/06 08:06:17;;;;;;;5.83;4.87;;;;;;;1.93;100.00;100945.13;5091135;28;20220;-79
2022/12/06 08:08:44;;;;;;;7.20;5.00;;;;;;;1.95;100.00;100946.81;5091006;28;20200;-80
2022/12/06 08:11:10;;;;;;;6.60;4.90;;;;;;;1.96;100.00;100942.44;5092174;28;20225;-81
2022/12/06 08:13:37;;;;;;;7.97;5.77;;;;;;;1.97;100.00;100944.97;5095177;28;20204;-80
2022/12/06 08:16:05;;;;;;;7.20;5.63;;;;;;;1.97;100.00;100947.63;5087610;28;20851;-81
2022/12/06 08:18:31;;;;;;;7.40;5.43;;;;;;;2.00;100.00;100947.53;5095071;28;20257;-80
2022/12/06 08:20:59;;;;;;;7.57;5.13;;;;;;;2.01;100.00;100954.53;5095450;28;20200;-79
2022/12/06 08:23:26;;;;;;;8.57;5.63;;;;;;;2.02;100.00;100963.28;5095208;28;20200;-80
2022/12/06 08:25:57;;;;;;;9.10;5.80;;;;;;;2.03;100.00;100962.38;5094847;28;20305;-79
2022/12/06 08:28:23;;;;;;;9.97;6.00;;;;;;;2.06;100.00;100957.06;5095259;28;20208;-80
2022/12/06 08:30:50;;;;;;;11.77;6.70;;;;;;;2.07;100.00;100964.03;5095476;28;20753;-80
2022/12/06 08:33:16;;;;;;;9.13;5.90;;;;;;;2.09;100.00;100962.25;5095295;28;20583;-80
2022/12/06 08:35:43;;;;;;;11.13;6.07;;;;;;;2.12;100.00;100972.69;5095302;28;20218;-80
2022/12/06 08:38:10;;;;;;;10.13;6.50;;;;;;;2.12;100.00;100974.44;5094862;28;20201;-80
2022/12/06 08:40:37;;;;;;;13.00;7.13;;;;;;;2.12;100.00;100972.69;5094578;28;20208;-81
2022/12/06 08:43:03;;;;;;;9.73;6.37;;;;;;;2.13;100.00;100968.28;5094925;28;20201;-80
2022/12/06 08:45:30;;;;;;;11.80;5.90;;;;;;;2.14;100.00;100977.91;5094987;28;20297;-80
2022/12/06 08:47:56;;;;;;;13.17;7.30;;;;;;;2.16;100.00;100976.06;5090090;28;20675;-79
2022/12/06 08:50:23;;;;;;;14.57;7.27;;;;;;;2.16;100.00;100979.56;5094945;28;20200;-79
2022/12/06 08:52:49;;;;;;;10.70;6.30;;;;;;;2.19;100.00;100978.63;5094334;28;20220;-81
2022/12/06 08:55:17;;;;;;;10.37;6.87;;;;;;;2.20;100.00;100978.59;5094941;28;20208;-79
2022/12/06 08:57:44;;;;;;;12.70;6.73;;;;;;;2.22;100.00;100984.69;5095220;28;20317;-79
2022/12/06 09:00:12;;;;;;;13.40;7.20;;;;;;;2.24;100.00;100982.91;5094228;28;20200;-79
2022/12/06 09:02:38;;;;;;;15.17;7.43;;;;;;;2.26;100.00;100983.72;5094351;28;20208;-79
2022/12/06 09:05:05;;;;;;;11.33;7.33;;;;;;;2.29;100.00;100983.66;5096373;28;20208;-79
2022/12/06 09:07:32;;;;;;;15.17;8.77;;;;;;;2.32;100.00;100987.97;5094462;28;20477;-80
2022/12/06 09:09:58;;;;;;;14.97;8.07;;;;;;;2.35;100.00;100980.84;5095476;28;20208;-79
2022/12/06 09:12:26;;;;;;;20.27;8.77;;;;;;;2.37;100.00;100983.44;5095336;28;20536;-81
2022/12/06 09:14:53;;;;;;;15.40;8.17;;;;;;;2.39;100.00;100984.28;5095050;28;20212;-79
2022/12/06 09:17:19;;;;;;;24.37;13.23;;;;;;;2.39;100.00;100979.88;5091614;28;20216;-80
2022/12/06 09:19:45;;;;;;;33.50;15.97;;;;;;;2.42;100.00;100984.22;5093664;28;20197;-80
2022/12/06 09:22:12;;;;;;;17.77;9.93;;;;;;;2.44;100.00;100987.66;5094821;28;20200;-81
2022/12/06 09:24:38;;;;;;;16.87;8.43;;;;;;;2.46;100.00;100993.75;5087407;28;20209;-80
2022/12/06 09:27:05;;;;;;;15.07;8.87;;;;;;;2.49;100.00;100992.81;5094013;28;20228;-79
2022/12/06 09:29:34;;;;;;;13.07;8.83;;;;;;;2.51;100.00;100986.59;5095164;28;20227;-79
2022/12/06 09:32:00;;;;;;;18.17;9.57;;;;;;;2.53;100.00;100990.06;5094705;28;20209;-80
2022/12/06 09:34:27;;;;;;;20.23;10.90;;;;;;;2.55;100.00;100985.63;5085917;28;20722;-79
2022/12/06 09:36:58;;;;;;;21.17;11.13;;;;;;;2.58;100.00;100980.28;5094425;28;20228;-80
2022/12/06 09:39:31;;;;;;;22.30;12.23;;;;;;;2.60;100.00;100983.75;5093970;28;20200;-79
2022/12/06 09:42:27;;;;;;;21.90;10.87;;;;;;;2.64;100.00;100985.41;5093647;28;20208;-79
2022/12/06 09:45:14;;;;;;;20.60;9.63;;;;;;;2.67;100.00;100982.72;5090295;28;20204;-80
2022/12/06 09:47:57;;;;;;;25.97;11.37;;;;;;;2.69;100.00;100978.25;5093780;28;20208;-79
2022/12/06 09:50:30;;;;;;;30.80;10.90;;;;;;;2.71;100.00;100981.69;5081982;28;20192;-79
2022/12/06 09:53:21;;;;;;;24.60;11.23;;;;;;;2.71;100.00;100979.06;5093854;28;20204;-79
2022/12/06 09:56:00;;;;;;;29.63;12.00;;;;;;;2.74;100.00;100972.88;5093465;28;20247;-79
2022/12/06 09:58:42;;;;;;;28.87;12.30;;;;;;;2.76;100.00;100977.19;5088003;28;20200;-80
2022/12/06 10:01:19;;;;;;;28.37;12.03;;;;;;;2.77;100.00;100972.81;5090353;28;20200;-80
2022/12/06 10:03:59;;;;;;;25.97;12.53;;;;;;;2.78;100.00;100982.41;5084947;28;20639;-80
2022/12/06 10:06:33;;;;;;;30.97;12.13;;;;;;;2.79;100.00;100971.88;5088215;28;20227;-80
2022/12/06 10:09:14;;;;;;;38.30;14.27;;;;;;;2.81;100.00;100971.81;5091965;28;20199;-80
2022/12/06 10:12:02;;;;;;;30.07;12.70;;;;;;;2.85;100.00;100969.97;5088780;28;20612;-81
2022/12/06 10:14:43;;;;;;;41.80;15.40;;;;;;;2.85;100.00;100970.84;5086318;28;20443;-80
2022/12/06 10:17:22;;;;;;;35.40;15.17;;;;;;;2.87;100.00;100962.88;5088919;28;20216;-80
2022/12/06 10:20:00;;;;;;;35.30;14.10;;;;;;;2.88;100.00;100965.47;5090449;28;20199;-80
2022/12/06 10:22:33;;;;;;;35.47;14.53;;;;;;;2.88;100.00;100954.94;5087658;28;20651;-80
2022/12/06 10:25:08;;;;;;;33.90;14.80;;;;;;;2.91;100.00;100959.28;5092507;28;20200;-80
2022/12/06 10:27:38;;;;;;;33.20;14.97;;;;;;;2.91;100.00;100954.88;5088028;28;20571;-80
2022/12/06 10:30:09;;;;;;;32.47;14.63;;;;;;;2.93;100.00;100953.06;5089778;28;20203;-80
2022/12/06 10:32:50;;;;;;;33.27;14.43;;;;;;;2.94;100.00;100944.28;5091572;28;20200;-80
2022/12/06 10:35:21;;;;;;;33.20;13.80;;;;;;;2.98;100.00;100955.59;5087573;28;20204;-81
2022/12/06 10:38:01;;;;;;;29.57;13.00;;;;;;;3.00;100.00;100957.28;5091690;28;20208;-80
2022/12/06 10:40:34;;;;;;;29.67;13.37;;;;;;;3.01;100.00;100948.47;5079108;28;20573;-80
2022/12/06 10:43:09;;;;;;;33.57;12.63;;;;;;;3.05;100.00;100946.59;5092320;28;20211;-81
2022/12/06 10:48:34;;;;;;;31.27;12.77;;;;;;;3.08;100.00;100949.16;5088173;28;20242;-80
2022/12/06 10:51:06;;;;;;;31.47;13.03;;;;;;;3.11;100.00;100957.81;5094504;28;20559;-81
2022/12/06 10:53:38;;;;;;;31.47;12.53;;;;;;;3.12;100.00;100953.44;5093430;28;20200;-79
2022/12/06 10:56:16;;;;;;;26.07;12.13;;;;;;;3.12;100.00;100945.53;5093576;28;20603;-79
2022/12/06 10:58:49;;;;;;;37.30;16.07;;;;;;;3.12;100.00;100943.75;5093324;28;20189;-80
2022/12/06 11:01:19;;;;;;;31.43;14.97;;;;;;;3.14;100.00;100949.00;5093720;28;20635;-80
2022/12/06 11:03:57;;;;;;;31.00;13.77;;;;;;;3.14;100.00;100938.47;5092527;28;20204;-79
2022/12/06 11:06:32;;;;;;;32.13;12.90;;;;;;;3.13;100.00;100939.38;5081371;28;20232;-80
2022/12/06 11:09:05;;;;;;;29.53;13.33;;;;;;;3.13;100.00;100944.63;5092406;28;20207;-80
2022/12/06 11:11:36;;;;;;;25.53;11.47;;;;;;;3.13;100.00;100942.00;5093127;28;20204;-81
2022/12/06 11:14:06;;;;;;;25.80;11.90;;;;;;;3.14;100.00;100946.34;5088202;28;20212;-80
2022/12/06 11:16:37;;;;;;;24.83;10.97;;;;;;;3.16;100.00;100938.44;5089747;28;20220;-79
2022/12/06 11:19:23;;;;;;;25.40;11.30;;;;;;;3.16;100.00;100939.28;5080915;28;20195;-80
2022/12/06 11:21:54;;;;;;;22.33;10.87;;;;;;;3.17;100.00;100934.88;5091538;28;20203;-79
2022/12/06 11:24:26;;;;;;;24.03;10.90;;;;;;;3.18;100.00;100934.84;5093493;28;20219;-80
2022/12/06 11:27:01;;;;;;;21.47;10.20;;;;;;;3.20;100.00;100924.28;5092644;28;20243;-79
2022/12/06 11:29:27;;;;;;;18.60;8.80;;;;;;;3.21;100.00;100924.25;5085144;28;20401;-80
2022/12/06 11:31:57;;;;;;;15.47;8.87;;;;;;;3.22;100.00;100918.06;5092910;28;20215;-79
2022/12/06 11:34:31;;;;;;;16.83;8.23;;;;;;;3.22;100.00;100918.06;5092794;28;20197;-79
2022/12/06 11:36:58;;;;;;;16.27;8.90;;;;;;;3.24;100.00;100912.72;5088223;28;20220;-80
2022/12/06 11:39:25;;;;;;;14.00;7.87;;;;;;;3.28;100.00;100917.00;5091804;28;20290;-80
2022/12/06 11:41:56;;;;;;;16.63;8.43;;;;;;;3.29;100.00;100914.34;5091524;28;20211;-80
2022/12/06 11:44:25;;;;;;;17.07;8.30;;;;;;;3.31;100.00;100912.53;5092377;28;20349;-79
2022/12/06 11:46:56;;;;;;;15.67;8.87;;;;;;;3.33;100.00;100915.97;5093950;28;20239;-80
2022/12/06 11:49:28;;;;;;;15.83;7.87;;;;;;;3.34;100.00;100916.84;5096150;28;20702;-79
2022/12/06 11:51:58;;;;;;;15.70;8.77;;;;;;;3.36;100.00;100915.88;5096629;28;20563;-80
2022/12/06 11:54:29;;;;;;;14.00;8.20;;;;;;;3.37;100.00;100914.13;5096018;28;20575;-79